Terminal Aerodrome Forecast
Issued by NWS

Home | Current Version | Previous Version | Text Only | Print | Product List | Glossary On
Versions: 1 2 3 4 5 6 7 8 9 10 11 12 13 14 15 16 17 18 19 20 21 22 23 24 25 26 27 28 29 30 31
000
FTUS44 KEWX 171457 AAB
TAFSSF
TAF AMD
KSSF 171457Z 1715/1812 35005KT P6SM BKN025 OVC035
      TEMPO 1715/1717 VRB10G25KT 1SM -TSRA OVC015CB
     FM171700 13007KT P6SM OVC035
     FM180700 12003KT P6SM OVC015=

USA.gov is the U.S. government's official web portal to all federal, state and local government web resources and services.